sensor_id;sensor_type;location;lat;lon;timestamp;temperature;humidity
46331;DHT22;32049;52.346;4.870;2022-07-23T00:02:10;16.80;99.90
46331;DHT22;32049;52.346;4.870;2022-07-23T00:04:57;16.80;99.90
46331;DHT22;32049;52.346;4.870;2022-07-23T00:07:45;16.80;99.90
46331;DHT22;32049;52.346;4.870;2022-07-23T00:10:33;16.80;99.90
46331;DHT22;32049;52.346;4.870;2022-07-23T00:13:20;16.80;99.90
46331;DHT22;32049;52.346;4.870;2022-07-23T00:16:08;16.60;99.90
46331;DHT22;32049;52.346;4.870;2022-07-23T00:18:55;16.60;99.90
46331;DHT22;32049;52.346;4.870;2022-07-23T00:21:43;16.60;99.90
46331;DHT22;32049;52.346;4.870;2022-07-23T00:24:31;16.60;99.90
46331;DHT22;32049;52.346;4.870;2022-07-23T00:27:19;16.70;99.90
46331;DHT22;32049;52.346;4.870;2022-07-23T00:30:06;16.80;99.90
46331;DHT22;32049;52.346;4.870;2022-07-23T00:32:57;16.70;99.90
46331;DHT22;32049;52.346;4.870;2022-07-23T00:35:45;16.70;99.90
46331;DHT22;32049;52.346;4.870;2022-07-23T00:38:32;16.60;99.90
46331;DHT22;32049;52.346;4.870;2022-07-23T00:41:19;16.70;99.90
46331;DHT22;32049;52.346;4.870;2022-07-23T00:44:18;16.70;99.90
46331;DHT22;32049;52.346;4.870;2022-07-23T00:47:06;16.70;99.90
46331;DHT22;32049;52.346;4.870;2022-07-23T00:49:54;16.60;99.90
46331;DHT22;32049;52.346;4.870;2022-07-23T00:52:41;16.60;99.90
46331;DHT22;32049;52.346;4.870;2022-07-23T00:55:29;16.60;99.90
46331;DHT22;32049;52.346;4.870;2022-07-23T00:58:17;16.50;99.90
46331;DHT22;32049;52.346;4.870;2022-07-23T01:01:05;16.60;99.90
46331;DHT22;32049;52.346;4.870;2022-07-23T01:03:52;16.50;99.90
46331;DHT22;32049;52.346;4.870;2022-07-23T01:06:41;16.50;99.90
46331;DHT22;32049;52.346;4.870;2022-07-23T01:09:31;16.40;99.90
46331;DHT22;32049;52.346;4.870;2022-07-23T01:12:19;16.50;99.90
46331;DHT22;32049;52.346;4.870;2022-07-23T01:15:06;16.50;99.90
46331;DHT22;32049;52.346;4.870;2022-07-23T01:33:10;16.40;99.90
46331;DHT22;32049;52.346;4.870;2022-07-23T01:35:58;16.50;99.90
46331;DHT22;32049;52.346;4.870;2022-07-23T01:38:45;16.40;99.90
46331;DHT22;32049;52.346;4.870;2022-07-23T01:41:33;16.30;99.90
46331;DHT22;32049;52.346;4.870;2022-07-23T01:44:21;16.40;99.90
46331;DHT22;32049;52.346;4.870;2022-07-23T01:47:09;16.30;99.90
46331;DHT22;32049;52.346;4.870;2022-07-23T01:49:56;16.30;99.90
46331;DHT22;32049;52.346;4.870;2022-07-23T01:52:43;16.30;99.90
46331;DHT22;32049;52.346;4.870;2022-07-23T01:55:30;16.20;99.90
46331;DHT22;32049;52.346;4.870;2022-07-23T01:58:18;16.30;99.90
46331;DHT22;32049;52.346;4.870;2022-07-23T02:01:06;16.30;99.90
46331;DHT22;32049;52.346;4.870;2022-07-23T02:03:53;16.30;99.90
46331;DHT22;32049;52.346;4.870;2022-07-23T02:06:40;16.20;99.90
46331;DHT22;32049;52.346;4.870;2022-07-23T02:09:28;16.30;99.90
46331;DHT22;32049;52.346;4.870;2022-07-23T02:12:16;16.10;99.90
46331;DHT22;32049;52.346;4.870;2022-07-23T02:15:04;16.20;99.90
46331;DHT22;32049;52.346;4.870;2022-07-23T02:17:52;16.20;99.90
46331;DHT22;32049;52.346;4.870;2022-07-23T02:20:41;16.20;99.90
46331;DHT22;32049;52.346;4.870;2022-07-23T02:23:28;16.10;99.90
46331;DHT22;32049;52.346;4.870;2022-07-23T02:26:16;16.10;99.90
46331;DHT22;32049;52.346;4.870;2022-07-23T02:29:07;16.20;99.90
46331;DHT22;32049;52.346;4.870;2022-07-23T02:31:54;16.10;99.90
46331;DHT22;32049;52.346;4.870;2022-07-23T02:34:42;16.10;99.90
46331;DHT22;32049;52.346;4.870;2022-07-23T02:37:30;16.10;99.90
46331;DHT22;32049;52.346;4.870;2022-07-23T02:40:18;16.10;99.90
46331;DHT22;32049;52.346;4.870;2022-07-23T02:43:05;16.10;99.90
46331;DHT22;32049;52.346;4.870;2022-07-23T02:45:53;16.10;99.90
46331;DHT22;32049;52.346;4.870;2022-07-23T02:48:40;15.90;99.90
46331;DHT22;32049;52.346;4.870;2022-07-23T02:51:28;15.80;99.90
46331;DHT22;32049;52.346;4.870;2022-07-23T02:54:16;15.90;99.90
46331;DHT22;32049;52.346;4.870;2022-07-23T02:57:04;15.80;99.90
46331;DHT22;32049;52.346;4.870;2022-07-23T02:59:51;15.90;99.90
46331;DHT22;32049;52.346;4.870;2022-07-23T03:02:39;16.00;99.90
46331;DHT22;32049;52.346;4.870;2022-07-23T03:05:26;15.90;99.90
46331;DHT22;32049;52.346;4.870;2022-07-23T03:08:14;16.00;99.90
46331;DHT22;32049;52.346;4.870;2022-07-23T03:11:02;16.00;99.90
46331;DHT22;32049;52.346;4.870;2022-07-23T03:13:49;16.00;99.90
46331;DHT22;32049;52.346;4.870;2022-07-23T03:16:37;16.00;99.90
46331;DHT22;32049;52.346;4.870;2022-07-23T03:19:25;15.90;99.90
46331;DHT22;32049;52.346;4.870;2022-07-23T03:22:12;15.90;99.90
46331;DHT22;32049;52.346;4.870;2022-07-23T03:24:59;15.90;99.90
46331;DHT22;32049;52.346;4.870;2022-07-23T03:27:47;15.80;99.90
46331;DHT22;32049;52.346;4.870;2022-07-23T03:30:35;15.90;99.90
46331;DHT22;32049;52.346;4.870;2022-07-23T03:33:22;15.80;99.90
46331;DHT22;32049;52.346;4.870;2022-07-23T03:36:09;15.70;99.90
46331;DHT22;32049;52.346;4.870;2022-07-23T03:38:57;15.70;99.90
46331;DHT22;32049;52.346;4.870;2022-07-23T03:41:47;15.70;99.90
46331;DHT22;32049;52.346;4.870;2022-07-23T03:44:35;15.60;99.90
46331;DHT22;32049;52.346;4.870;2022-07-23T03:47:24;15.70;99.90
46331;DHT22;32049;52.346;4.870;2022-07-23T03:50:11;15.70;99.90
46331;DHT22;32049;52.346;4.870;2022-07-23T03:52:59;15.80;99.90
46331;DHT22;32049;52.346;4.870;2022-07-23T03:55:46;15.80;99.90
46331;DHT22;32049;52.346;4.870;2022-07-23T03:58:34;15.70;99.90
46331;DHT22;32049;52.346;4.870;2022-07-23T04:01:21;15.70;99.90
46331;DHT22;32049;52.346;4.870;2022-07-23T04:04:08;15.80;99.90
46331;DHT22;32049;52.346;4.870;2022-07-23T04:06:56;15.80;99.90
46331;DHT22;32049;52.346;4.870;2022-07-23T04:09:44;15.80;99.90
46331;DHT22;32049;52.346;4.870;2022-07-23T04:12:33;15.90;99.90
46331;DHT22;32049;52.346;4.870;2022-07-23T04:15:20;15.90;99.90
46331;DHT22;32049;52.346;4.870;2022-07-23T04:18:07;15.80;99.90
46331;DHT22;32049;52.346;4.870;2022-07-23T04:20:55;15.80;99.90
46331;DHT22;32049;52.346;4.870;2022-07-23T04:27:00;15.80;99.90
46331;DHT22;32049;52.346;4.870;2022-07-23T04:29:48;15.80;99.90
46331;DHT22;32049;52.346;4.870;2022-07-23T04:32:35;15.90;99.90
46331;DHT22;32049;52.346;4.870;2022-07-23T04:35:22;16.00;99.90
46331;DHT22;32049;52.346;4.870;2022-07-23T04:38:11;16.10;99.90
46331;DHT22;32049;52.346;4.870;2022-07-23T04:40:58;16.10;99.90
46331;DHT22;32049;52.346;4.870;2022-07-23T04:43:46;16.20;99.90
46331;DHT22;32049;52.346;4.870;2022-07-23T04:46:34;16.10;99.90
46331;DHT22;32049;52.346;4.870;2022-07-23T04:49:21;16.20;99.90
46331;DHT22;32049;52.346;4.870;2022-07-23T04:52:08;16.30;99.90
46331;DHT22;32049;52.346;4.870;2022-07-23T04:54:55;16.30;99.90
46331;DHT22;32049;52.346;4.870;2022-07-23T04:57:43;16.40;99.90
46331;DHT22;32049;52.346;4.870;2022-07-23T05:00:30;16.60;99.90
46331;DHT22;32049;52.346;4.870;2022-07-23T05:03:17;16.70;99.90
46331;DHT22;32049;52.346;4.870;2022-07-23T05:06:05;16.70;99.90
46331;DHT22;32049;52.346;4.870;2022-07-23T05:08:53;16.60;99.90
46331;DHT22;32049;52.346;4.870;2022-07-23T05:11:42;16.70;99.90
46331;DHT22;32049;52.346;4.870;2022-07-23T05:14:30;16.60;99.90
46331;DHT22;32049;52.346;4.870;2022-07-23T05:17:17;16.50;99.90
46331;DHT22;32049;52.346;4.870;2022-07-23T05:20:05;16.70;99.90
46331;DHT22;32049;52.346;4.870;2022-07-23T05:22:53;16.80;99.90
46331;DHT22;32049;52.346;4.870;2022-07-23T05:25:40;16.70;99.90
46331;DHT22;32049;52.346;4.870;2022-07-23T05:28:28;16.90;99.90
46331;DHT22;32049;52.346;4.870;2022-07-23T05:31:15;17.00;99.90
46331;DHT22;32049;52.346;4.870;2022-07-23T05:34:02;17.00;99.90
46331;DHT22;32049;52.346;4.870;2022-07-23T05:36:49;16.90;99.90
46331;DHT22;32049;52.346;4.870;2022-07-23T05:39:36;17.10;99.90
46331;DHT22;32049;52.346;4.870;2022-07-23T05:42:23;17.10;99.90
46331;DHT22;32049;52.346;4.870;2022-07-23T05:45:11;17.10;99.90
46331;DHT22;32049;52.346;4.870;2022-07-23T05:47:58;17.20;99.90
46331;DHT22;32049;52.346;4.870;2022-07-23T05:50:46;17.20;99.90
46331;DHT22;32049;52.346;4.870;2022-07-23T05:53:34;17.20;99.90
46331;DHT22;32049;52.346;4.870;2022-07-23T05:56:22;17.30;99.90
46331;DHT22;32049;52.346;4.870;2022-07-23T05:59:10;17.50;99.90
46331;DHT22;32049;52.346;4.870;2022-07-23T06:01:59;17.70;99.90
46331;DHT22;32049;52.346;4.870;2022-07-23T06:04:47;18.20;99.90
46331;DHT22;32049;52.346;4.870;2022-07-23T06:07:35;18.20;99.90
46331;DHT22;32049;52.346;4.870;2022-07-23T06:10:22;18.70;99.90
46331;DHT22;32049;52.346;4.870;2022-07-23T06:13:10;18.70;99.90
46331;DHT22;32049;52.346;4.870;2022-07-23T06:15:57;18.60;99.90
46331;DHT22;32049;52.346;4.870;2022-07-23T06:18:44;18.40;99.90
46331;DHT22;32049;52.346;4.870;2022-07-23T06:21:32;18.60;99.90
46331;DHT22;32049;52.346;4.870;2022-07-23T06:24:33;19.00;99.90
46331;DHT22;32049;52.346;4.870;2022-07-23T06:27:21;18.80;99.90
46331;DHT22;32049;52.346;4.870;2022-07-23T06:30:13;19.10;99.90
46331;DHT22;32049;52.346;4.870;2022-07-23T06:33:04;19.10;99.90
46331;DHT22;32049;52.346;4.870;2022-07-23T06:35:52;18.60;99.90
46331;DHT22;32049;52.346;4.870;2022-07-23T06:38:40;18.40;99.90
46331;DHT22;32049;52.346;4.870;2022-07-23T06:41:28;18.10;99.90
46331;DHT22;32049;52.346;4.870;2022-07-23T06:44:16;18.60;99.90
46331;DHT22;32049;52.346;4.870;2022-07-23T06:47:03;19.00;99.90
46331;DHT22;32049;52.346;4.870;2022-07-23T06:49:50;19.10;99.90
46331;DHT22;32049;52.346;4.870;2022-07-23T06:52:37;19.10;99.90
46331;DHT22;32049;52.346;4.870;2022-07-23T06:55:29;19.30;99.90
46331;DHT22;32049;52.346;4.870;2022-07-23T06:58:17;18.90;99.90
46331;DHT22;32049;52.346;4.870;2022-07-23T07:01:06;19.40;99.90
46331;DHT22;32049;52.346;4.870;2022-07-23T07:03:54;19.00;99.90
46331;DHT22;32049;52.346;4.870;2022-07-23T07:06:41;19.30;99.90
46331;DHT22;32049;52.346;4.870;2022-07-23T07:09:29;19.50;99.90
46331;DHT22;32049;52.346;4.870;2022-07-23T07:12:16;18.90;99.90
46331;DHT22;32049;52.346;4.870;2022-07-23T07:15:04;19.50;99.90
46331;DHT22;32049;52.346;4.870;2022-07-23T07:17:51;19.60;99.90
46331;DHT22;32049;52.346;4.870;2022-07-23T07:20:39;19.30;99.90
46331;DHT22;32049;52.346;4.870;2022-07-23T07:23:26;19.80;99.90
46331;DHT22;32049;52.346;4.870;2022-07-23T07:26:14;20.00;99.90
46331;DHT22;32049;52.346;4.870;2022-07-23T07:29:02;19.70;99.90
46331;DHT22;32049;52.346;4.870;2022-07-23T07:31:50;19.70;99.90
46331;DHT22;32049;52.346;4.870;2022-07-23T07:34:37;19.70;99.90
46331;DHT22;32049;52.346;4.870;2022-07-23T07:37:24;19.30;99.90
46331;DHT22;32049;52.346;4.870;2022-07-23T07:40:12;19.80;99.90
46331;DHT22;32049;52.346;4.870;2022-07-23T07:42:59;19.90;99.90
46331;DHT22;32049;52.346;4.870;2022-07-23T07:45:47;20.10;99.90
46331;DHT22;32049;52.346;4.870;2022-07-23T07:48:36;20.10;99.90
46331;DHT22;32049;52.346;4.870;2022-07-23T07:51:24;20.10;99.90
46331;DHT22;32049;52.346;4.870;2022-07-23T07:54:12;20.00;99.90
46331;DHT22;32049;52.346;4.870;2022-07-23T07:57:00;20.00;99.90
46331;DHT22;32049;52.346;4.870;2022-07-23T07:59:47;19.70;99.90
46331;DHT22;32049;52.346;4.870;2022-07-23T08:02:48;19.90;99.90
46331;DHT22;32049;52.346;4.870;2022-07-23T08:05:36;20.30;99.90
46331;DHT22;32049;52.346;4.870;2022-07-23T08:08:23;20.60;99.90
46331;DHT22;32049;52.346;4.870;2022-07-23T08:11:12;20.80;99.90
46331;DHT22;32049;52.346;4.870;2022-07-23T08:14:00;21.00;99.90
46331;DHT22;32049;52.346;4.870;2022-07-23T08:16:48;20.70;99.90
46331;DHT22;32049;52.346;4.870;2022-07-23T08:19:55;20.70;99.90
46331;DHT22;32049;52.346;4.870;2022-07-23T08:22:44;20.80;99.90
46331;DHT22;32049;52.346;4.870;2022-07-23T08:25:35;20.90;99.90
46331;DHT22;32049;52.346;4.870;2022-07-23T08:28:23;20.80;99.90
46331;DHT22;32049;52.346;4.870;2022-07-23T08:31:11;20.80;99.90
46331;DHT22;32049;52.346;4.870;2022-07-23T08:34:00;20.50;99.90
46331;DHT22;32049;52.346;4.870;2022-07-23T08:36:48;20.70;99.90
46331;DHT22;32049;52.346;4.870;2022-07-23T08:39:36;20.90;99.90
46331;DHT22;32049;52.346;4.870;2022-07-23T08:42:24;21.10;99.90
46331;DHT22;32049;52.346;4.870;2022-07-23T08:45:12;21.10;99.90
46331;DHT22;32049;52.346;4.870;2022-07-23T08:48:03;21.30;99.90
46331;DHT22;32049;52.346;4.870;2022-07-23T08:50:55;21.50;99.90
46331;DHT22;32049;52.346;4.870;2022-07-23T08:53:45;21.20;99.90
46331;DHT22;32049;52.346;4.870;2022-07-23T08:56:35;21.60;99.90
46331;DHT22;32049;52.346;4.870;2022-07-23T08:59:22;21.80;99.90
46331;DHT22;32049;52.346;4.870;2022-07-23T09:02:10;22.00;99.90
46331;DHT22;32049;52.346;4.870;2022-07-23T09:04:59;21.80;99.90
46331;DHT22;32049;52.346;4.870;2022-07-23T09:08:14;22.10;99.90
46331;DHT22;32049;52.346;4.870;2022-07-23T09:11:05;21.90;99.90
46331;DHT22;32049;52.346;4.870;2022-07-23T09:13:54;22.10;99.90
46331;DHT22;32049;52.346;4.870;2022-07-23T09:16:41;22.00;99.90
46331;DHT22;32049;52.346;4.870;2022-07-23T09:19:31;22.00;99.60
46331;DHT22;32049;52.346;4.870;2022-07-23T09:22:26;21.90;99.40
46331;DHT22;32049;52.346;4.870;2022-07-23T09:25:17;22.40;99.30
46331;DHT22;32049;52.346;4.870;2022-07-23T09:28:05;22.50;98.80
46331;DHT22;32049;52.346;4.870;2022-07-23T09:30:54;22.40;99.50
46331;DHT22;32049;52.346;4.870;2022-07-23T09:33:41;22.40;99.60
46331;DHT22;32049;52.346;4.870;2022-07-23T09:36:30;22.80;99.40
46331;DHT22;32049;52.346;4.870;2022-07-23T09:39:31;23.10;99.00
46331;DHT22;32049;52.346;4.870;2022-07-23T09:42:24;23.50;98.30
46331;DHT22;32049;52.346;4.870;2022-07-23T09:45:12;23.30;97.60
46331;DHT22;32049;52.346;4.870;2022-07-23T09:48:14;22.90;97.90
46331;DHT22;32049;52.346;4.870;2022-07-23T09:51:02;23.00;98.10
46331;DHT22;32049;52.346;4.870;2022-07-23T09:53:51;23.20;97.70
46331;DHT22;32049;52.346;4.870;2022-07-23T09:56:39;23.20;98.00
46331;DHT22;32049;52.346;4.870;2022-07-23T09:59:31;23.30;97.70
46331;DHT22;32049;52.346;4.870;2022-07-23T10:02:20;23.50;98.30
46331;DHT22;32049;52.346;4.870;2022-07-23T10:05:15;23.70;98.20
46331;DHT22;32049;52.346;4.870;2022-07-23T10:08:03;23.90;97.20
46331;DHT22;32049;52.346;4.870;2022-07-23T10:10:51;23.50;97.50
46331;DHT22;32049;52.346;4.870;2022-07-23T10:13:40;24.20;97.40
46331;DHT22;32049;52.346;4.870;2022-07-23T10:16:34;24.50;97.10
46331;DHT22;32049;52.346;4.870;2022-07-23T10:19:22;24.00;96.70
46331;DHT22;32049;52.346;4.870;2022-07-23T10:22:13;23.40;97.80
46331;DHT22;32049;52.346;4.870;2022-07-23T10:29:02;22.90;98.10
46331;DHT22;32049;52.346;4.870;2022-07-23T10:34:55;23.50;96.70
46331;DHT22;32049;52.346;4.870;2022-07-23T10:37:49;22.50;98.20
46331;DHT22;32049;52.346;4.870;2022-07-23T10:40:56;23.00;97.80
46331;DHT22;32049;52.346;4.870;2022-07-23T10:43:44;23.40;97.20
46331;DHT22;32049;52.346;4.870;2022-07-23T10:46:31;24.30;96.40
46331;DHT22;32049;52.346;4.870;2022-07-23T10:49:30;24.60;96.30
46331;DHT22;32049;52.346;4.870;2022-07-23T10:52:21;24.10;96.10
46331;DHT22;32049;52.346;4.870;2022-07-23T10:57:57;24.00;96.40
46331;DHT22;32049;52.346;4.870;2022-07-23T11:04:08;24.20;96.50
46331;DHT22;32049;52.346;4.870;2022-07-23T11:09:43;24.60;95.80
46331;DHT22;32049;52.346;4.870;2022-07-23T11:12:32;24.50;95.80
46331;DHT22;32049;52.346;4.870;2022-07-23T11:15:20;24.50;95.70
46331;DHT22;32049;52.346;4.870;2022-07-23T11:18:07;25.00;95.70
46331;DHT22;32049;52.346;4.870;2022-07-23T11:20:55;24.80;94.80
46331;DHT22;32049;52.346;4.870;2022-07-23T11:24:02;24.50;94.90
46331;DHT22;32049;52.346;4.870;2022-07-23T11:26:59;24.10;95.10
46331;DHT22;32049;52.346;4.870;2022-07-23T11:29:48;24.30;95.40
46331;DHT22;32049;52.346;4.870;2022-07-23T11:32:38;25.30;95.10
46331;DHT22;32049;52.346;4.870;2022-07-23T11:35:27;25.50;95.30
46331;DHT22;32049;52.346;4.870;2022-07-23T11:38:17;25.70;94.40
46331;DHT22;32049;52.346;4.870;2022-07-23T11:41:05;25.80;94.00
46331;DHT22;32049;52.346;4.870;2022-07-23T11:43:54;25.20;93.70
46331;DHT22;32049;52.346;4.870;2022-07-23T11:46:57;25.50;93.70
46331;DHT22;32049;52.346;4.870;2022-07-23T11:49:56;26.30;94.80
46331;DHT22;32049;52.346;4.870;2022-07-23T11:52:44;26.20;93.20
46331;DHT22;32049;52.346;4.870;2022-07-23T11:55:32;26.00;93.10
46331;DHT22;32049;52.346;4.870;2022-07-23T11:58:19;25.80;93.80
46331;DHT22;32049;52.346;4.870;2022-07-23T12:01:07;25.90;93.30
46331;DHT22;32049;52.346;4.870;2022-07-23T12:03:59;25.80;93.60
46331;DHT22;32049;52.346;4.870;2022-07-23T12:06:48;26.30;93.50
46331;DHT22;32049;52.346;4.870;2022-07-23T12:09:35;26.60;93.30
46331;DHT22;32049;52.346;4.870;2022-07-23T12:12:23;27.30;92.80
46331;DHT22;32049;52.346;4.870;2022-07-23T12:15:14;27.80;92.30
46331;DHT22;32049;52.346;4.870;2022-07-23T12:18:02;27.60;91.80
46331;DHT22;32049;52.346;4.870;2022-07-23T12:20:51;27.50;92.20
46331;DHT22;32049;52.346;4.870;2022-07-23T12:23:39;27.00;91.70
46331;DHT22;32049;52.346;4.870;2022-07-23T12:26:27;27.00;92.00
46331;DHT22;32049;52.346;4.870;2022-07-23T12:29:15;27.00;92.10
46331;DHT22;32049;52.346;4.870;2022-07-23T12:32:02;26.90;91.60
46331;DHT22;32049;52.346;4.870;2022-07-23T12:35:04;27.50;91.70
46331;DHT22;32049;52.346;4.870;2022-07-23T12:38:00;27.20;91.20
46331;DHT22;32049;52.346;4.870;2022-07-23T12:40:52;27.30;91.50
46331;DHT22;32049;52.346;4.870;2022-07-23T12:43:42;27.50;91.20
46331;DHT22;32049;52.346;4.870;2022-07-23T12:49:47;27.30;91.20
46331;DHT22;32049;52.346;4.870;2022-07-23T12:52:35;27.60;91.60
46331;DHT22;32049;52.346;4.870;2022-07-23T12:55:29;27.50;91.20
46331;DHT22;32049;52.346;4.870;2022-07-23T12:58:20;27.00;91.30
46331;DHT22;32049;52.346;4.870;2022-07-23T13:01:22;27.10;91.40
46331;DHT22;32049;52.346;4.870;2022-07-23T13:04:17;27.40;91.30
46331;DHT22;32049;52.346;4.870;2022-07-23T13:07:05;27.60;91.20
46331;DHT22;32049;52.346;4.870;2022-07-23T13:09:53;27.00;91.20
46331;DHT22;32049;52.346;4.870;2022-07-23T13:12:41;27.20;91.60
46331;DHT22;32049;52.346;4.870;2022-07-23T13:15:28;27.10;91.60
46331;DHT22;32049;52.346;4.870;2022-07-23T13:18:16;26.50;92.10
46331;DHT22;32049;52.346;4.870;2022-07-23T13:21:06;27.00;92.00
46331;DHT22;32049;52.346;4.870;2022-07-23T13:23:56;27.50;92.00
46331;DHT22;32049;52.346;4.870;2022-07-23T13:26:43;27.30;91.60
46331;DHT22;32049;52.346;4.870;2022-07-23T13:29:34;27.00;91.60
46331;DHT22;32049;52.346;4.870;2022-07-23T13:32:23;27.30;91.70
46331;DHT22;32049;52.346;4.870;2022-07-23T13:35:10;27.30;91.40
46331;DHT22;32049;52.346;4.870;2022-07-23T13:38:00;27.40;91.50
46331;DHT22;32049;52.346;4.870;2022-07-23T13:40:49;27.50;91.90
46331;DHT22;32049;52.346;4.870;2022-07-23T13:43:37;26.70;91.80
46331;DHT22;32049;52.346;4.870;2022-07-23T13:46:24;26.40;92.00
46331;DHT22;32049;52.346;4.870;2022-07-23T13:49:13;25.60;92.40
46331;DHT22;32049;52.346;4.870;2022-07-23T13:52:01;25.50;92.80
46331;DHT22;32049;52.346;4.870;2022-07-23T13:54:52;25.90;93.50
46331;DHT22;32049;52.346;4.870;2022-07-23T13:57:40;26.90;92.70
46331;DHT22;32049;52.346;4.870;2022-07-23T14:00:28;26.50;92.10
46331;DHT22;32049;52.346;4.870;2022-07-23T14:03:37;26.80;92.10
46331;DHT22;32049;52.346;4.870;2022-07-23T14:06:26;27.00;92.10
46331;DHT22;32049;52.346;4.870;2022-07-23T14:09:19;26.70;92.20
46331;DHT22;32049;52.346;4.870;2022-07-23T14:12:07;26.50;92.50
46331;DHT22;32049;52.346;4.870;2022-07-23T14:14:57;27.00;92.30
46331;DHT22;32049;52.346;4.870;2022-07-23T14:17:45;26.70;92.00
46331;DHT22;32049;52.346;4.870;2022-07-23T14:20:33;26.80;92.10
46331;DHT22;32049;52.346;4.870;2022-07-23T14:23:21;26.30;92.20
46331;DHT22;32049;52.346;4.870;2022-07-23T14:26:28;26.30;92.70
46331;DHT22;32049;52.346;4.870;2022-07-23T14:29:16;25.80;93.10
46331;DHT22;32049;52.346;4.870;2022-07-23T14:32:06;25.80;93.30
46331;DHT22;32049;52.346;4.870;2022-07-23T14:34:53;25.50;92.80
46331;DHT22;32049;52.346;4.870;2022-07-23T14:37:45;25.30;92.70
46331;DHT22;32049;52.346;4.870;2022-07-23T14:40:32;25.30;93.70
46331;DHT22;32049;52.346;4.870;2022-07-23T14:43:19;25.40;93.30
46331;DHT22;32049;52.346;4.870;2022-07-23T14:46:07;25.20;93.10
46331;DHT22;32049;52.346;4.870;2022-07-23T14:48:54;25.90;93.70
46331;DHT22;32049;52.346;4.870;2022-07-23T14:51:42;26.20;93.10
46331;DHT22;32049;52.346;4.870;2022-07-23T14:54:30;26.20;93.10
46331;DHT22;32049;52.346;4.870;2022-07-23T14:57:18;25.70;93.00
46331;DHT22;32049;52.346;4.870;2022-07-23T15:00:13;25.90;93.70
46331;DHT22;32049;52.346;4.870;2022-07-23T15:03:03;25.80;93.30
46331;DHT22;32049;52.346;4.870;2022-07-23T15:05:50;26.10;93.90
46331;DHT22;32049;52.346;4.870;2022-07-23T15:08:39;26.20;93.50
46331;DHT22;32049;52.346;4.870;2022-07-23T15:11:27;26.30;94.10
46331;DHT22;32049;52.346;4.870;2022-07-23T15:14:16;26.60;93.10
46331;DHT22;32049;52.346;4.870;2022-07-23T15:17:16;26.10;93.60
46331;DHT22;32049;52.346;4.870;2022-07-23T15:20:04;26.10;93.00
46331;DHT22;32049;52.346;4.870;2022-07-23T15:22:52;25.80;93.60
46331;DHT22;32049;52.346;4.870;2022-07-23T15:25:39;25.80;94.20
46331;DHT22;32049;52.346;4.870;2022-07-23T15:28:37;25.40;94.30
46331;DHT22;32049;52.346;4.870;2022-07-23T15:31:24;25.50;94.70
46331;DHT22;32049;52.346;4.870;2022-07-23T15:34:15;25.60;94.40
46331;DHT22;32049;52.346;4.870;2022-07-23T15:37:02;25.40;94.50
46331;DHT22;32049;52.346;4.870;2022-07-23T15:39:57;25.10;94.60
46331;DHT22;32049;52.346;4.870;2022-07-23T15:42:45;25.30;94.80
46331;DHT22;32049;52.346;4.870;2022-07-23T15:45:32;25.30;94.80
46331;DHT22;32049;52.346;4.870;2022-07-23T15:48:21;25.60;95.00
46331;DHT22;32049;52.346;4.870;2022-07-23T15:51:08;25.80;94.90
46331;DHT22;32049;52.346;4.870;2022-07-23T15:53:56;25.80;95.50
46331;DHT22;32049;52.346;4.870;2022-07-23T15:56:44;25.80;94.60
46331;DHT22;32049;52.346;4.870;2022-07-23T15:59:32;26.10;94.60
46331;DHT22;32049;52.346;4.870;2022-07-23T16:02:19;26.00;93.80
46331;DHT22;32049;52.346;4.870;2022-07-23T16:05:08;26.00;94.30
46331;DHT22;32049;52.346;4.870;2022-07-23T16:07:56;26.20;94.50
46331;DHT22;32049;52.346;4.870;2022-07-23T16:10:44;26.30;94.30
46331;DHT22;32049;52.346;4.870;2022-07-23T16:13:31;25.90;95.30
46331;DHT22;32049;52.346;4.870;2022-07-23T16:16:19;25.70;95.70
46331;DHT22;32049;52.346;4.870;2022-07-23T16:19:07;25.70;95.60
46331;DHT22;32049;52.346;4.870;2022-07-23T16:21:54;25.60;95.90
46331;DHT22;32049;52.346;4.870;2022-07-23T16:24:43;25.40;95.90
46331;DHT22;32049;52.346;4.870;2022-07-23T16:27:38;25.70;96.00
46331;DHT22;32049;52.346;4.870;2022-07-23T16:30:26;25.60;96.10
46331;DHT22;32049;52.346;4.870;2022-07-23T16:33:14;25.90;96.50
46331;DHT22;32049;52.346;4.870;2022-07-23T16:36:02;25.80;95.80
46331;DHT22;32049;52.346;4.870;2022-07-23T16:38:50;25.80;95.50
46331;DHT22;32049;52.346;4.870;2022-07-23T16:41:38;25.40;96.30
46331;DHT22;32049;52.346;4.870;2022-07-23T16:44:25;25.50;96.60
46331;DHT22;32049;52.346;4.870;2022-07-23T16:47:12;25.50;96.30
46331;DHT22;32049;52.346;4.870;2022-07-23T16:50:00;25.30;96.40
46331;DHT22;32049;52.346;4.870;2022-07-23T16:52:47;25.40;96.80
46331;DHT22;32049;52.346;4.870;2022-07-23T16:55:35;25.40;96.60
46331;DHT22;32049;52.346;4.870;2022-07-23T16:58:23;25.20;95.60
46331;DHT22;32049;52.346;4.870;2022-07-23T17:01:11;25.20;96.20
46331;DHT22;32049;52.346;4.870;2022-07-23T17:03:58;25.10;95.70
46331;DHT22;32049;52.346;4.870;2022-07-23T17:06:46;25.20;95.90
46331;DHT22;32049;52.346;4.870;2022-07-23T17:09:34;25.00;95.60
46331;DHT22;32049;52.346;4.870;2022-07-23T17:12:22;25.00;96.00
46331;DHT22;32049;52.346;4.870;2022-07-23T17:15:09;25.20;95.70
46331;DHT22;32049;52.346;4.870;2022-07-23T17:17:57;25.30;95.70
46331;DHT22;32049;52.346;4.870;2022-07-23T17:20:44;25.00;96.20
46331;DHT22;32049;52.346;4.870;2022-07-23T17:23:32;25.00;96.20
46331;DHT22;32049;52.346;4.870;2022-07-23T17:41:47;24.80;96.30
46331;DHT22;32049;52.346;4.870;2022-07-23T17:44:36;24.80;96.90
46331;DHT22;32049;52.346;4.870;2022-07-23T17:47:23;24.60;97.20
46331;DHT22;32049;52.346;4.870;2022-07-23T17:50:10;24.50;97.30
46331;DHT22;32049;52.346;4.870;2022-07-23T17:52:57;24.60;97.50
46331;DHT22;32049;52.346;4.870;2022-07-23T17:55:45;24.50;97.40
46331;DHT22;32049;52.346;4.870;2022-07-23T17:58:32;24.40;97.70
46331;DHT22;32049;52.346;4.870;2022-07-23T18:01:21;24.20;97.40
46331;DHT22;32049;52.346;4.870;2022-07-23T18:13:14;24.20;97.30
46331;DHT22;32049;52.346;4.870;2022-07-23T18:16:02;24.10;97.60
46331;DHT22;32049;52.346;4.870;2022-07-23T18:18:50;24.10;97.60
46331;DHT22;32049;52.346;4.870;2022-07-23T18:21:37;24.00;97.80
46331;DHT22;32049;52.346;4.870;2022-07-23T18:24:25;24.00;98.00
46331;DHT22;32049;52.346;4.870;2022-07-23T18:27:12;23.90;97.70
46331;DHT22;32049;52.346;4.870;2022-07-23T18:30:00;23.80;97.90
46331;DHT22;32049;52.346;4.870;2022-07-23T18:32:47;23.80;98.00
46331;DHT22;32049;52.346;4.870;2022-07-23T18:35:35;23.70;98.10
46331;DHT22;32049;52.346;4.870;2022-07-23T18:38:23;23.60;98.20
46331;DHT22;32049;52.346;4.870;2022-07-23T18:41:13;23.60;98.40
46331;DHT22;32049;52.346;4.870;2022-07-23T18:44:01;23.60;98.50
46331;DHT22;32049;52.346;4.870;2022-07-23T18:46:48;23.60;98.80
46331;DHT22;32049;52.346;4.870;2022-07-23T18:49:36;23.50;98.60